sensor_id;sensor_type;location;lat;lon;timestamp;P1;durP1;ratioP1;P2;durP2;ratioP2
62010;SDS011;47967;51.756;10.174;2022-07-30T00:02:36;5.13;;;3.05;;
62010;SDS011;47967;51.756;10.174;2022-07-30T00:06:40;5.95;;;3.05;;
62010;SDS011;47967;51.756;10.174;2022-07-30T00:10:43;8.02;;;3.13;;
62010;SDS011;47967;51.756;10.174;2022-07-30T00:14:50;9.48;;;3.55;;
62010;SDS011;47967;51.756;10.174;2022-07-30T00:18:52;4.85;;;3.58;;
62010;SDS011;47967;51.756;10.174;2022-07-30T00:22:57;5.45;;;3.28;;
62010;SDS011;47967;51.756;10.174;2022-07-30T00:27:05;8.90;;;3.65;;
62010;SDS011;47967;51.756;10.174;2022-07-30T00:31:07;7.30;;;4.07;;
62010;SDS011;47967;51.756;10.174;2022-07-30T00:35:10;9.90;;;3.88;;
62010;SDS011;47967;51.756;10.174;2022-07-30T00:39:14;8.48;;;4.20;;
62010;SDS011;47967;51.756;10.174;2022-07-30T00:43:17;7.88;;;3.58;;
62010;SDS011;47967;51.756;10.174;2022-07-30T00:47:21;8.18;;;3.90;;
62010;SDS011;47967;51.756;10.174;2022-07-30T00:51:23;9.52;;;4.30;;
62010;SDS011;47967;51.756;10.174;2022-07-30T00:55:27;6.85;;;4.13;;
62010;SDS011;47967;51.756;10.174;2022-07-30T00:59:30;7.90;;;4.00;;
62010;SDS011;47967;51.756;10.174;2022-07-30T01:03:33;6.93;;;4.00;;
62010;SDS011;47967;51.756;10.174;2022-07-30T01:07:36;8.40;;;4.22;;
62010;SDS011;47967;51.756;10.174;2022-07-30T01:11:40;8.88;;;3.97;;
62010;SDS011;47967;51.756;10.174;2022-07-30T01:15:44;11.10;;;4.30;;
62010;SDS011;47967;51.756;10.174;2022-07-30T01:19:47;5.93;;;3.97;;
62010;SDS011;47967;51.756;10.174;2022-07-30T01:23:54;8.10;;;4.40;;
62010;SDS011;47967;51.756;10.174;2022-07-30T01:28:03;9.05;;;4.80;;
62010;SDS011;47967;51.756;10.174;2022-07-30T01:32:08;9.10;;;4.85;;
62010;SDS011;47967;51.756;10.174;2022-07-30T01:36:14;5.57;;;4.28;;
62010;SDS011;47967;51.756;10.174;2022-07-30T01:40:20;7.85;;;4.45;;
62010;SDS011;47967;51.756;10.174;2022-07-30T01:44:26;9.35;;;4.40;;
62010;SDS011;47967;51.756;10.174;2022-07-30T01:48:29;6.32;;;4.60;;
62010;SDS011;47967;51.756;10.174;2022-07-30T01:52:36;6.93;;;4.50;;
62010;SDS011;47967;51.756;10.174;2022-07-30T01:56:39;7.60;;;4.72;;
62010;SDS011;47967;51.756;10.174;2022-07-30T02:00:44;7.80;;;4.40;;
62010;SDS011;47967;51.756;10.174;2022-07-30T02:04:50;7.63;;;4.63;;
62010;SDS011;47967;51.756;10.174;2022-07-30T02:08:53;10.98;;;4.80;;
62010;SDS011;47967;51.756;10.174;2022-07-30T02:12:59;8.10;;;4.63;;
62010;SDS011;47967;51.756;10.174;2022-07-30T02:17:07;9.60;;;5.03;;
62010;SDS011;47967;51.756;10.174;2022-07-30T02:25:22;7.97;;;4.60;;
62010;SDS011;47967;51.756;10.174;2022-07-30T02:29:27;7.65;;;4.65;;
62010;SDS011;47967;51.756;10.174;2022-07-30T02:33:37;8.15;;;4.68;;
62010;SDS011;47967;51.756;10.174;2022-07-30T02:37:49;8.23;;;5.20;;
62010;SDS011;47967;51.756;10.174;2022-07-30T02:41:55;8.32;;;4.90;;
62010;SDS011;47967;51.756;10.174;2022-07-30T02:46:00;10.57;;;5.32;;
62010;SDS011;47967;51.756;10.174;2022-07-30T02:50:24;7.50;;;4.93;;
62010;SDS011;47967;51.756;10.174;2022-07-30T02:54:30;11.35;;;5.10;;
62010;SDS011;47967;51.756;10.174;2022-07-30T02:58:34;9.82;;;5.00;;
62010;SDS011;47967;51.756;10.174;2022-07-30T03:02:39;9.98;;;4.90;;
62010;SDS011;47967;51.756;10.174;2022-07-30T03:06:45;11.35;;;5.82;;
62010;SDS011;47967;51.756;10.174;2022-07-30T03:10:49;9.68;;;5.10;;
62010;SDS011;47967;51.756;10.174;2022-07-30T03:14:57;10.80;;;5.13;;
62010;SDS011;47967;51.756;10.174;2022-07-30T03:19:00;9.32;;;5.28;;
62010;SDS011;47967;51.756;10.174;2022-07-30T03:23:06;12.38;;;5.80;;
62010;SDS011;47967;51.756;10.174;2022-07-30T03:27:12;6.63;;;4.80;;
62010;SDS011;47967;51.756;10.174;2022-07-30T03:31:16;6.68;;;4.85;;
62010;SDS011;47967;51.756;10.174;2022-07-30T03:35:19;7.72;;;5.35;;
62010;SDS011;47967;51.756;10.174;2022-07-30T03:39:28;9.15;;;5.28;;
62010;SDS011;47967;51.756;10.174;2022-07-30T03:43:34;10.10;;;5.68;;
62010;SDS011;47967;51.756;10.174;2022-07-30T03:47:39;8.52;;;4.88;;
62010;SDS011;47967;51.756;10.174;2022-07-30T03:51:46;8.30;;;5.60;;
62010;SDS011;47967;51.756;10.174;2022-07-30T03:55:51;7.53;;;4.93;;
62010;SDS011;47967;51.756;10.174;2022-07-30T04:00:15;10.73;;;5.68;;
62010;SDS011;47967;51.756;10.174;2022-07-30T04:04:22;9.82;;;5.43;;
62010;SDS011;47967;51.756;10.174;2022-07-30T04:08:26;10.63;;;5.30;;
62010;SDS011;47967;51.756;10.174;2022-07-30T04:12:30;5.75;;;4.20;;
62010;SDS011;47967;51.756;10.174;2022-07-30T04:16:35;7.82;;;4.07;;
62010;SDS011;47967;51.756;10.174;2022-07-30T04:20:46;9.98;;;4.38;;
62010;SDS011;47967;51.756;10.174;2022-07-30T04:24:52;6.20;;;4.20;;
62010;SDS011;47967;51.756;10.174;2022-07-30T04:28:58;8.82;;;4.32;;
62010;SDS011;47967;51.756;10.174;2022-07-30T04:33:02;6.97;;;4.85;;
62010;SDS011;47967;51.756;10.174;2022-07-30T04:37:14;9.45;;;4.93;;
62010;SDS011;47967;51.756;10.174;2022-07-30T04:41:18;7.10;;;4.97;;
62010;SDS011;47967;51.756;10.174;2022-07-30T04:45:45;6.72;;;5.00;;
62010;SDS011;47967;51.756;10.174;2022-07-30T04:49:48;7.15;;;5.20;;
62010;SDS011;47967;51.756;10.174;2022-07-30T04:53:54;8.20;;;4.68;;
62010;SDS011;47967;51.756;10.174;2022-07-30T04:57:59;8.82;;;5.18;;
62010;SDS011;47967;51.756;10.174;2022-07-30T05:02:07;11.80;;;5.82;;
62010;SDS011;47967;51.756;10.174;2022-07-30T05:06:12;11.43;;;5.70;;
62010;SDS011;47967;51.756;10.174;2022-07-30T05:10:15;6.50;;;4.82;;
62010;SDS011;47967;51.756;10.174;2022-07-30T05:14:20;9.40;;;5.40;;
62010;SDS011;47967;51.756;10.174;2022-07-30T05:18:24;9.18;;;5.70;;
62010;SDS011;47967;51.756;10.174;2022-07-30T05:22:27;9.38;;;5.90;;
62010;SDS011;47967;51.756;10.174;2022-07-30T05:26:30;8.15;;;5.88;;
62010;SDS011;47967;51.756;10.174;2022-07-30T05:30:33;10.32;;;5.95;;
62010;SDS011;47967;51.756;10.174;2022-07-30T05:34:39;8.55;;;5.80;;
62010;SDS011;47967;51.756;10.174;2022-07-30T05:38:41;8.65;;;5.43;;
62010;SDS011;47967;51.756;10.174;2022-07-30T05:43:04;10.15;;;5.25;;
62010;SDS011;47967;51.756;10.174;2022-07-30T05:47:07;8.23;;;5.35;;
62010;SDS011;47967;51.756;10.174;2022-07-30T05:51:13;9.65;;;5.70;;
62010;SDS011;47967;51.756;10.174;2022-07-30T05:55:16;8.23;;;4.82;;
62010;SDS011;47967;51.756;10.174;2022-07-30T05:59:30;7.20;;;5.10;;
62010;SDS011;47967;51.756;10.174;2022-07-30T06:04:01;7.97;;;5.05;;
62010;SDS011;47967;51.756;10.174;2022-07-30T06:08:28;7.38;;;4.80;;
62010;SDS011;47967;51.756;10.174;2022-07-30T06:12:31;7.55;;;4.70;;
62010;SDS011;47967;51.756;10.174;2022-07-30T06:16:34;6.53;;;4.97;;
62010;SDS011;47967;51.756;10.174;2022-07-30T06:20:37;9.23;;;5.30;;
62010;SDS011;47967;51.756;10.174;2022-07-30T06:25:02;7.30;;;5.00;;
62010;SDS011;47967;51.756;10.174;2022-07-30T06:29:06;8.07;;;5.57;;
62010;SDS011;47967;51.756;10.174;2022-07-30T06:33:09;7.70;;;5.60;;
62010;SDS011;47967;51.756;10.174;2022-07-30T06:37:11;14.17;;;6.40;;
62010;SDS011;47967;51.756;10.174;2022-07-30T06:41:17;7.88;;;6.00;;
62010;SDS011;47967;51.756;10.174;2022-07-30T06:45:26;9.90;;;6.63;;
62010;SDS011;47967;51.756;10.174;2022-07-30T06:49:46;11.43;;;6.20;;
62010;SDS011;47967;51.756;10.174;2022-07-30T06:53:49;7.85;;;5.63;;
62010;SDS011;47967;51.756;10.174;2022-07-30T06:58:22;7.93;;;6.20;;
62010;SDS011;47967;51.756;10.174;2022-07-30T07:02:52;8.75;;;5.60;;
62010;SDS011;47967;51.756;10.174;2022-07-30T07:07:07;10.48;;;5.90;;
62010;SDS011;47967;51.756;10.174;2022-07-30T07:11:12;7.57;;;5.68;;
62010;SDS011;47967;51.756;10.174;2022-07-30T07:15:22;8.60;;;5.47;;
62010;SDS011;47967;51.756;10.174;2022-07-30T07:19:40;7.63;;;5.25;;
62010;SDS011;47967;51.756;10.174;2022-07-30T07:24:04;6.82;;;5.60;;
62010;SDS011;47967;51.756;10.174;2022-07-30T07:28:39;7.85;;;5.13;;
62010;SDS011;47967;51.756;10.174;2022-07-30T07:32:43;9.60;;;4.95;;
62010;SDS011;47967;51.756;10.174;2022-07-30T07:36:47;6.20;;;4.60;;
62010;SDS011;47967;51.756;10.174;2022-07-30T07:40:50;6.20;;;4.80;;
62010;SDS011;47967;51.756;10.174;2022-07-30T07:44:53;7.05;;;4.88;;
62010;SDS011;47967;51.756;10.174;2022-07-30T07:48:57;8.55;;;5.28;;
62010;SDS011;47967;51.756;10.174;2022-07-30T07:53:07;5.93;;;4.28;;
62010;SDS011;47967;51.756;10.174;2022-07-30T07:57:09;8.32;;;3.97;;
62010;SDS011;47967;51.756;10.174;2022-07-30T08:01:16;6.63;;;3.85;;
62010;SDS011;47967;51.756;10.174;2022-07-30T08:05:39;6.32;;;3.67;;
62010;SDS011;47967;51.756;10.174;2022-07-30T08:10:20;4.40;;;3.45;;
62010;SDS011;47967;51.756;10.174;2022-07-30T08:14:43;7.97;;;3.70;;
62010;SDS011;47967;51.756;10.174;2022-07-30T08:19:09;5.10;;;3.25;;
62010;SDS011;47967;51.756;10.174;2022-07-30T08:23:16;3.85;;;2.80;;
62010;SDS011;47967;51.756;10.174;2022-07-30T08:27:19;3.33;;;2.75;;
62010;SDS011;47967;51.756;10.174;2022-07-30T08:31:22;5.90;;;3.17;;
62010;SDS011;47967;51.756;10.174;2022-07-30T08:35:24;5.47;;;3.33;;
62010;SDS011;47967;51.756;10.174;2022-07-30T08:39:28;5.97;;;3.00;;
62010;SDS011;47967;51.756;10.174;2022-07-30T08:43:31;3.78;;;2.83;;
62010;SDS011;47967;51.756;10.174;2022-07-30T08:47:35;3.53;;;3.05;;
62010;SDS011;47967;51.756;10.174;2022-07-30T08:51:44;4.45;;;3.00;;
62010;SDS011;47967;51.756;10.174;2022-07-30T08:56:09;4.65;;;3.28;;
62010;SDS011;47967;51.756;10.174;2022-07-30T09:00:13;4.43;;;3.22;;
62010;SDS011;47967;51.756;10.174;2022-07-30T09:04:16;4.32;;;3.60;;
62010;SDS011;47967;51.756;10.174;2022-07-30T09:08:20;6.43;;;3.55;;
62010;SDS011;47967;51.756;10.174;2022-07-30T15:13:04;2.85;;;2.58;;
62010;SDS011;47967;51.756;10.174;2022-07-30T15:17:08;3.65;;;2.40;;
62010;SDS011;47967;51.756;10.174;2022-07-30T15:21:11;2.72;;;2.10;;
62010;SDS011;47967;51.756;10.174;2022-07-30T15:25:13;2.97;;;2.20;;
62010;SDS011;47967;51.756;10.174;2022-07-30T15:29:17;3.03;;;2.08;;
62010;SDS011;47967;51.756;10.174;2022-07-30T15:33:20;2.97;;;2.22;;
62010;SDS011;47967;51.756;10.174;2022-07-30T15:37:22;2.42;;;2.22;;
62010;SDS011;47967;51.756;10.174;2022-07-30T15:41:25;2.78;;;2.15;;
62010;SDS011;47967;51.756;10.174;2022-07-30T15:45:29;3.92;;;2.40;;
62010;SDS011;47967;51.756;10.174;2022-07-30T15:49:52;2.50;;;2.30;;
62010;SDS011;47967;51.756;10.174;2022-07-30T15:53:54;2.90;;;2.50;;
62010;SDS011;47967;51.756;10.174;2022-07-30T15:57:57;4.00;;;2.30;;
62010;SDS011;47967;51.756;10.174;2022-07-30T16:02:01;3.63;;;2.40;;
62010;SDS011;47967;51.756;10.174;2022-07-30T16:06:04;3.30;;;2.53;;
62010;SDS011;47967;51.756;10.174;2022-07-30T16:10:07;3.60;;;2.85;;
62010;SDS011;47967;51.756;10.174;2022-07-30T16:14:10;3.28;;;2.88;;
62010;SDS011;47967;51.756;10.174;2022-07-30T16:18:14;4.07;;;3.10;;
62010;SDS011;47967;51.756;10.174;2022-07-30T16:22:17;5.95;;;3.45;;
62010;SDS011;47967;51.756;10.174;2022-07-30T16:26:24;4.68;;;3.22;;
62010;SDS011;47967;51.756;10.174;2022-07-30T16:30:27;4.72;;;3.50;;
62010;SDS011;47967;51.756;10.174;2022-07-30T16:34:31;5.10;;;3.50;;
62010;SDS011;47967;51.756;10.174;2022-07-30T16:38:34;7.20;;;3.70;;
62010;SDS011;47967;51.756;10.174;2022-07-30T16:42:36;5.20;;;3.80;;
62010;SDS011;47967;51.756;10.174;2022-07-30T16:46:39;7.70;;;4.57;;
62010;SDS011;47967;51.756;10.174;2022-07-30T16:50:43;5.05;;;4.15;;
62010;SDS011;47967;51.756;10.174;2022-07-30T16:54:45;6.93;;;4.45;;
62010;SDS011;47967;51.756;10.174;2022-07-30T16:58:48;8.05;;;4.07;;
62010;SDS011;47967;51.756;10.174;2022-07-30T17:02:51;8.95;;;3.78;;
62010;SDS011;47967;51.756;10.174;2022-07-30T17:06:55;6.18;;;3.80;;
62010;SDS011;47967;51.756;10.174;2022-07-30T17:10:57;6.10;;;3.90;;
62010;SDS011;47967;51.756;10.174;2022-07-30T17:15:00;5.50;;;4.07;;
62010;SDS011;47967;51.756;10.174;2022-07-30T17:19:02;5.50;;;3.90;;
62010;SDS011;47967;51.756;10.174;2022-07-30T17:23:11;4.32;;;3.92;;
62010;SDS011;47967;51.756;10.174;2022-07-30T17:27:13;4.97;;;3.92;;
62010;SDS011;47967;51.756;10.174;2022-07-30T17:31:16;5.80;;;4.10;;
62010;SDS011;47967;51.756;10.174;2022-07-30T17:35:19;5.93;;;3.85;;
62010;SDS011;47967;51.756;10.174;2022-07-30T17:39:23;6.20;;;3.85;;
62010;SDS011;47967;51.756;10.174;2022-07-30T17:43:46;5.63;;;3.90;;
62010;SDS011;47967;51.756;10.174;2022-07-30T17:47:48;7.00;;;4.13;;
62010;SDS011;47967;51.756;10.174;2022-07-30T17:51:51;4.35;;;3.80;;
62010;SDS011;47967;51.756;10.174;2022-07-30T17:55:55;6.05;;;4.03;;
62010;SDS011;47967;51.756;10.174;2022-07-30T17:59:58;5.72;;;4.18;;
62010;SDS011;47967;51.756;10.174;2022-07-30T18:04:04;6.05;;;4.28;;
62010;SDS011;47967;51.756;10.174;2022-07-30T18:08:07;5.88;;;4.10;;
62010;SDS011;47967;51.756;10.174;2022-07-30T18:12:11;7.97;;;4.90;;
62010;SDS011;47967;51.756;10.174;2022-07-30T18:16:13;15.82;;;11.80;;
62010;SDS011;47967;51.756;10.174;2022-07-30T18:20:16;7.45;;;4.70;;
62010;SDS011;47967;51.756;10.174;2022-07-30T18:24:18;6.10;;;4.90;;
62010;SDS011;47967;51.756;10.174;2022-07-30T18:28:26;4.95;;;3.85;;
62010;SDS011;47967;51.756;10.174;2022-07-30T18:32:28;4.50;;;4.10;;
62010;SDS011;47967;51.756;10.174;2022-07-30T18:36:31;4.97;;;4.00;;
62010;SDS011;47967;51.756;10.174;2022-07-30T18:40:34;5.40;;;4.13;;
62010;SDS011;47967;51.756;10.174;2022-07-30T18:44:38;4.95;;;4.20;;
62010;SDS011;47967;51.756;10.174;2022-07-30T18:48:41;8.07;;;4.07;;
62010;SDS011;47967;51.756;10.174;2022-07-30T18:52:43;4.82;;;4.20;;
62010;SDS011;47967;51.756;10.174;2022-07-30T18:56:46;7.03;;;4.63;;
62010;SDS011;47967;51.756;10.174;2022-07-30T19:00:50;5.20;;;3.65;;
62010;SDS011;47967;51.756;10.174;2022-07-30T19:04:53;6.32;;;4.18;;
62010;SDS011;47967;51.756;10.174;2022-07-30T19:08:58;6.75;;;4.07;;
62010;SDS011;47967;51.756;10.174;2022-07-30T19:13:01;8.90;;;4.40;;
62010;SDS011;47967;51.756;10.174;2022-07-30T19:17:05;6.53;;;4.40;;
62010;SDS011;47967;51.756;10.174;2022-07-30T19:21:15;8.18;;;3.80;;
62010;SDS011;47967;51.756;10.174;2022-07-30T19:25:18;6.15;;;4.32;;
62010;SDS011;47967;51.756;10.174;2022-07-30T19:29:21;6.82;;;4.55;;
62010;SDS011;47967;51.756;10.174;2022-07-30T19:33:25;7.82;;;4.75;;
62010;SDS011;47967;51.756;10.174;2022-07-30T19:37:27;9.15;;;4.93;;
62010;SDS011;47967;51.756;10.174;2022-07-30T19:41:30;4.85;;;4.35;;
62010;SDS011;47967;51.756;10.174;2022-07-30T19:45:40;5.60;;;4.38;;
62010;SDS011;47967;51.756;10.174;2022-07-30T19:49:49;9.13;;;5.22;;
62010;SDS011;47967;51.756;10.174;2022-07-30T19:53:53;7.47;;;5.10;;
62010;SDS011;47967;51.756;10.174;2022-07-30T19:57:56;14.13;;;4.70;;
62010;SDS011;47967;51.756;10.174;2022-07-30T20:01:59;11.32;;;5.15;;
62010;SDS011;47967;51.756;10.174;2022-07-30T20:06:03;7.70;;;4.82;;
62010;SDS011;47967;51.756;10.174;2022-07-30T20:10:07;12.00;;;5.35;;
62010;SDS011;47967;51.756;10.174;2022-07-30T20:14:12;9.23;;;4.47;;
62010;SDS011;47967;51.756;10.174;2022-07-30T20:18:16;8.25;;;4.85;;
62010;SDS011;47967;51.756;10.174;2022-07-30T20:22:30;11.85;;;4.95;;
62010;SDS011;47967;51.756;10.174;2022-07-30T20:26:33;10.30;;;5.03;;
62010;SDS011;47967;51.756;10.174;2022-07-30T20:30:36;7.57;;;5.20;;
62010;SDS011;47967;51.756;10.174;2022-07-30T20:34:39;9.48;;;5.72;;
62010;SDS011;47967;51.756;10.174;2022-07-30T20:38:47;7.57;;;5.30;;
62010;SDS011;47967;51.756;10.174;2022-07-30T20:42:50;11.35;;;5.63;;
62010;SDS011;47967;51.756;10.174;2022-07-30T20:46:54;10.00;;;5.72;;
62010;SDS011;47967;51.756;10.174;2022-07-30T20:51:00;8.13;;;5.50;;
62010;SDS011;47967;51.756;10.174;2022-07-30T20:55:06;8.55;;;5.28;;
62010;SDS011;47967;51.756;10.174;2022-07-30T20:59:09;6.85;;;5.22;;
62010;SDS011;47967;51.756;10.174;2022-07-30T21:03:12;9.95;;;5.53;;
62010;SDS011;47967;51.756;10.174;2022-07-30T21:07:16;9.00;;;6.03;;
62010;SDS011;47967;51.756;10.174;2022-07-30T21:11:22;10.55;;;5.18;;
62010;SDS011;47967;51.756;10.174;2022-07-30T21:15:26;7.82;;;4.72;;
62010;SDS011;47967;51.756;10.174;2022-07-30T21:19:32;7.35;;;4.93;;
62010;SDS011;47967;51.756;10.174;2022-07-30T21:23:35;8.63;;;5.20;;
62010;SDS011;47967;51.756;10.174;2022-07-30T21:27:39;9.00;;;5.40;;
62010;SDS011;47967;51.756;10.174;2022-07-30T21:31:41;8.63;;;4.82;;
62010;SDS011;47967;51.756;10.174;2022-07-30T21:36:03;6.70;;;5.03;;
62010;SDS011;47967;51.756;10.174;2022-07-30T21:40:11;9.55;;;5.00;;
62010;SDS011;47967;51.756;10.174;2022-07-30T21:44:16;8.82;;;5.00;;
62010;SDS011;47967;51.756;10.174;2022-07-30T21:48:20;8.77;;;5.38;;
62010;SDS011;47967;51.756;10.174;2022-07-30T21:52:23;9.20;;;5.53;;
62010;SDS011;47967;51.756;10.174;2022-07-30T21:56:26;10.43;;;5.17;;
62010;SDS011;47967;51.756;10.174;2022-07-30T22:00:40;7.50;;;5.25;;
62010;SDS011;47967;51.756;10.174;2022-07-30T22:04:45;7.60;;;5.47;;
62010;SDS011;47967;51.756;10.174;2022-07-30T22:08:50;7.07;;;5.65;;
62010;SDS011;47967;51.756;10.174;2022-07-30T22:12:54;11.13;;;5.38;;
62010;SDS011;47967;51.756;10.174;2022-07-30T22:16:58;9.45;;;5.25;;
62010;SDS011;47967;51.756;10.174;2022-07-30T22:21:04;8.15;;;5.30;;
62010;SDS011;47967;51.756;10.174;2022-07-30T22:25:07;10.67;;;5.57;;
62010;SDS011;47967;51.756;10.174;2022-07-30T22:29:11;10.57;;;5.50;;
62010;SDS011;47967;51.756;10.174;2022-07-30T22:33:16;6.43;;;4.95;;
62010;SDS011;47967;51.756;10.174;2022-07-30T22:37:20;9.38;;;5.18;;
62010;SDS011;47967;51.756;10.174;2022-07-30T22:41:22;8.48;;;5.30;;
62010;SDS011;47967;51.756;10.174;2022-07-30T22:45:25;9.75;;;5.78;;
62010;SDS011;47967;51.756;10.174;2022-07-30T22:49:49;9.53;;;5.20;;
62010;SDS011;47967;51.756;10.174;2022-07-30T22:53:56;5.63;;;4.88;;
62010;SDS011;47967;51.756;10.174;2022-07-30T22:58:13;10.93;;;5.07;;
62010;SDS011;47967;51.756;10.174;2022-07-30T23:02:15;7.80;;;5.13;;
62010;SDS011;47967;51.756;10.174;2022-07-30T23:06:19;6.53;;;4.63;;
62010;SDS011;47967;51.756;10.174;2022-07-30T23:10:22;9.05;;;5.20;;
62010;SDS011;47967;51.756;10.174;2022-07-30T23:14:44;9.93;;;5.00;;
62010;SDS011;47967;51.756;10.174;2022-07-30T23:18:47;12.43;;;5.27;;
62010;SDS011;47967;51.756;10.174;2022-07-30T23:22:51;13.73;;;5.93;;
62010;SDS011;47967;51.756;10.174;2022-07-30T23:26:53;7.50;;;4.97;;
62010;SDS011;47967;51.756;10.174;2022-07-30T23:30:56;7.80;;;5.23;;
62010;SDS011;47967;51.756;10.174;2022-07-30T23:34:59;8.55;;;5.35;;
62010;SDS011;47967;51.756;10.174;2022-07-30T23:39:03;7.83;;;5.00;;
62010;SDS011;47967;51.756;10.174;2022-07-30T23:43:05;13.75;;;5.18;;
62010;SDS011;47967;51.756;10.174;2022-07-30T23:47:08;7.40;;;5.07;;
62010;SDS011;47967;51.756;10.174;2022-07-30T23:51:11;8.45;;;5.20;;
62010;SDS011;47967;51.756;10.174;2022-07-30T23:55:15;7.20;;;5.53;;
62010;SDS011;47967;51.756;10.174;2022-07-30T23:59:17;12.65;;;5.65;;
